createdAt,value
2017-10-25T00:01:27.424Z,17.36
2017-10-25T00:04:02.605Z,17.38
2017-10-25T00:06:37.407Z,17.37
2017-10-25T00:09:12.137Z,17.42
2017-10-25T00:11:46.716Z,17.45
2017-10-25T00:14:21.388Z,17.40
2017-10-25T00:16:56.119Z,17.40
2017-10-25T00:19:31.195Z,17.39
2017-10-25T00:22:06.284Z,17.37
2017-10-25T00:24:41.068Z,17.40
2017-10-25T00:27:16.282Z,17.44
2017-10-25T00:29:51.041Z,17.41
2017-10-25T00:32:25.564Z,17.43
2017-10-25T00:35:00.692Z,17.48
2017-10-25T00:37:36.056Z,17.45
2017-10-25T00:40:11.169Z,17.46
2017-10-25T00:42:46.340Z,17.49
2017-10-25T00:45:20.996Z,17.48
2017-10-25T00:47:55.882Z,17.48
2017-10-25T00:50:30.585Z,17.49
2017-10-25T00:53:05.583Z,17.45
2017-10-25T00:55:40.148Z,17.48
2017-10-25T00:58:14.368Z,17.45
2017-10-25T01:00:49.377Z,17.46
2017-10-25T01:03:23.881Z,17.46
2017-10-25T01:05:58.780Z,17.45
2017-10-25T01:08:33.289Z,17.51
2017-10-25T01:11:08.514Z,17.52
2017-10-25T01:13:43.398Z,17.49
2017-10-25T01:16:18.349Z,17.50
2017-10-25T01:18:52.918Z,17.48
2017-10-25T01:21:27.823Z,17.49
2017-10-25T01:24:02.396Z,17.50
2017-10-25T01:26:36.641Z,17.49
2017-10-25T01:29:11.009Z,17.48
2017-10-25T01:31:45.721Z,17.49
2017-10-25T01:34:20.864Z,17.49
2017-10-25T01:36:55.829Z,17.50
2017-10-25T01:39:29.719Z,17.48
2017-10-25T01:42:04.653Z,17.53
2017-10-25T01:44:39.804Z,17.53
2017-10-25T01:47:14.168Z,17.51
2017-10-25T01:49:48.969Z,17.51
2017-10-25T01:52:24.367Z,17.46
2017-10-25T01:54:58.991Z,17.38
2017-10-25T01:57:33.978Z,17.35
2017-10-25T02:00:08.924Z,17.35
2017-10-25T02:02:44.284Z,17.40
2017-10-25T02:05:18.436Z,17.41
2017-10-25T02:07:53.419Z,17.40
2017-10-25T02:10:28.243Z,17.45
2017-10-25T02:13:03.271Z,17.42
2017-10-25T02:15:38.216Z,17.40
2017-10-25T02:18:13.142Z,17.39
2017-10-25T02:20:48.199Z,17.39
2017-10-25T02:23:23.379Z,17.41
2017-10-25T02:25:57.711Z,17.40
2017-10-25T02:28:32.417Z,17.41
2017-10-25T02:31:07.120Z,17.37
2017-10-25T02:33:41.801Z,17.35
2017-10-25T02:36:17.209Z,17.37
2017-10-25T02:38:52.193Z,17.37
2017-10-25T02:41:27.376Z,17.38
2017-10-25T02:44:02.969Z,17.38
2017-10-25T02:46:38.084Z,17.37
2017-10-25T02:49:13.223Z,17.40
2017-10-25T02:51:48.239Z,17.38
2017-10-25T02:54:23.260Z,17.35
2017-10-25T02:56:58.329Z,17.39
2017-10-25T02:59:33.359Z,17.40
2017-10-25T03:02:08.704Z,17.40
2017-10-25T03:04:43.425Z,17.40
2017-10-25T03:07:18.164Z,17.38
2017-10-25T03:09:53.000Z,17.34
2017-10-25T03:12:27.844Z,17.28
2017-10-25T03:15:03.261Z,17.32
2017-10-25T03:17:38.163Z,17.28
2017-10-25T03:20:13.095Z,17.29
2017-10-25T03:22:48.095Z,17.29
2017-10-25T03:25:23.119Z,17.30
2017-10-25T03:27:57.897Z,17.30
2017-10-25T03:30:32.805Z,17.31
2017-10-25T03:33:07.632Z,17.29
2017-10-25T03:35:42.646Z,17.24
2017-10-25T03:38:17.837Z,17.27
2017-10-25T03:40:52.392Z,17.26
2017-10-25T03:43:27.172Z,17.26
2017-10-25T03:46:01.797Z,17.25
2017-10-25T03:48:36.673Z,17.27
2017-10-25T03:51:11.420Z,17.27
2017-10-25T03:53:45.851Z,17.25
2017-10-25T03:56:20.791Z,17.27
2017-10-25T03:58:55.845Z,17.23
2017-10-25T04:01:30.427Z,17.25
2017-10-25T04:04:05.688Z,17.25
2017-10-25T04:06:40.949Z,17.27
2017-10-25T04:09:15.572Z,17.21
2017-10-25T04:11:50.799Z,17.24
2017-10-25T04:14:26.249Z,17.21
2017-10-25T04:17:01.437Z,17.15
2017-10-25T04:19:36.086Z,17.15
2017-10-25T04:22:10.817Z,17.15
2017-10-25T04:24:45.537Z,17.17
2017-10-25T04:27:20.432Z,17.20
2017-10-25T04:29:55.400Z,17.16
2017-10-25T04:32:30.236Z,17.17
2017-10-25T04:35:05.224Z,17.17
2017-10-25T04:37:40.379Z,17.14
2017-10-25T04:40:15.281Z,17.12
2017-10-25T04:42:50.092Z,17.09
2017-10-25T04:45:24.868Z,17.10
2017-10-25T04:48:00.105Z,17.13
2017-10-25T04:50:35.163Z,17.13
2017-10-25T04:53:10.017Z,17.11
2017-10-25T04:55:44.933Z,17.09
2017-10-25T04:58:19.761Z,17.07
2017-10-25T05:00:55.397Z,17.06
2017-10-25T05:03:29.884Z,17.03
2017-10-25T05:06:05.184Z,16.97
2017-10-25T05:08:40.181Z,17.01
2017-10-25T05:11:14.842Z,16.98
2017-10-25T05:13:49.296Z,16.88
2017-10-25T05:16:23.991Z,16.88
2017-10-25T05:18:58.772Z,16.90
2017-10-25T05:21:33.563Z,16.89
2017-10-25T05:24:08.065Z,16.88
2017-10-25T05:26:43.169Z,16.85
2017-10-25T05:29:18.612Z,16.84
2017-10-25T05:31:52.744Z,16.80
2017-10-25T05:34:27.869Z,16.76
2017-10-25T05:37:02.832Z,16.70
2017-10-25T05:39:37.077Z,16.71
2017-10-25T05:42:12.316Z,16.74
2017-10-25T05:44:47.119Z,16.75
2017-10-25T05:47:22.179Z,16.77
2017-10-25T05:49:57.344Z,16.79
2017-10-25T05:52:32.460Z,16.78
2017-10-25T05:55:06.882Z,16.79
2017-10-25T05:57:42.184Z,16.77
2017-10-25T06:00:17.465Z,16.78
2017-10-25T06:02:52.544Z,16.84
2017-10-25T06:05:27.529Z,16.82
2017-10-25T06:08:02.585Z,16.82
2017-10-25T06:10:37.133Z,16.83
2017-10-25T06:13:12.213Z,16.83
2017-10-25T06:15:47.065Z,16.84
2017-10-25T06:18:21.897Z,16.85
2017-10-25T06:20:56.940Z,16.91
2017-10-25T06:23:32.180Z,16.86
2017-10-25T06:26:07.027Z,16.86
2017-10-25T06:28:42.520Z,16.90
2017-10-25T06:31:16.807Z,16.97
2017-10-25T06:33:52.068Z,16.99
2017-10-25T06:36:26.732Z,17.01
2017-10-25T06:39:01.655Z,17.05
2017-10-25T06:41:36.392Z,17.05
2017-10-25T06:44:11.148Z,17.08
2017-10-25T06:46:45.832Z,17.16
2017-10-25T06:49:20.476Z,17.21
2017-10-25T06:51:56.259Z,17.21
2017-10-25T06:54:30.958Z,17.18
2017-10-25T06:57:05.645Z,17.20
2017-10-25T06:59:40.052Z,17.22
2017-10-25T07:02:14.692Z,17.29
2017-10-25T07:04:49.400Z,17.32
2017-10-25T07:07:24.124Z,17.35
2017-10-25T07:09:59.261Z,17.37
2017-10-25T07:12:34.309Z,17.38
2017-10-25T07:15:09.622Z,17.43
2017-10-25T07:17:44.724Z,17.42
2017-10-25T07:20:19.753Z,17.42
2017-10-25T07:22:54.528Z,17.42
2017-10-25T07:25:29.356Z,17.45
2017-10-25T07:28:04.032Z,17.46
2017-10-25T07:30:38.594Z,17.49
2017-10-25T07:33:13.636Z,17.53
2017-10-25T07:35:48.868Z,17.49
2017-10-25T07:38:24.244Z,17.43
2017-10-25T07:40:58.909Z,17.41
2017-10-25T07:43:34.000Z,17.40
2017-10-25T07:46:09.233Z,17.36
2017-10-25T07:48:44.156Z,17.41
2017-10-25T07:51:18.920Z,17.40
2017-10-25T07:53:53.768Z,17.39
2017-10-25T07:56:28.579Z,17.40
2017-10-25T07:59:03.524Z,17.43
2017-10-25T08:01:38.337Z,17.46
2017-10-25T08:04:13.176Z,17.46
2017-10-25T08:06:47.985Z,17.49
2017-10-25T08:09:22.845Z,17.53
2017-10-25T08:11:57.855Z,17.61
2017-10-25T08:14:32.372Z,17.71
2017-10-25T08:17:07.500Z,17.78
2017-10-25T08:19:42.316Z,17.82
2017-10-25T08:22:17.378Z,17.82
2017-10-25T08:24:51.911Z,17.81
2017-10-25T08:27:26.880Z,17.77
2017-10-25T08:30:01.609Z,17.77
2017-10-25T08:32:36.240Z,17.78
2017-10-25T08:35:11.062Z,17.86
2017-10-25T08:37:46.313Z,17.96
2017-10-25T08:40:22.026Z,18.08
2017-10-25T08:42:56.732Z,18.19
2017-10-25T08:45:31.397Z,18.34
2017-10-25T08:48:06.179Z,18.41
2017-10-25T08:50:41.237Z,18.50
2017-10-25T08:53:15.940Z,18.65
2017-10-25T08:55:50.472Z,18.67
2017-10-25T08:58:25.819Z,18.72
2017-10-25T09:01:00.300Z,18.70
2017-10-25T09:03:35.383Z,18.71
2017-10-25T09:06:10.085Z,18.67
2017-10-25T09:08:44.808Z,18.68
2017-10-25T09:11:21.351Z,18.76
2017-10-25T09:13:56.252Z,18.68
2017-10-25T09:16:31.205Z,18.42
2017-10-25T09:19:06.037Z,18.51
2017-10-25T09:21:40.814Z,18.47
2017-10-25T09:24:15.928Z,18.34
2017-10-25T09:26:50.511Z,18.36
2017-10-25T09:29:25.641Z,18.41
2017-10-25T09:32:00.589Z,18.50
2017-10-25T09:34:35.500Z,18.51
2017-10-25T09:37:10.172Z,18.44
2017-10-25T09:39:44.900Z,18.36
2017-10-25T09:42:19.452Z,18.34
2017-10-25T09:44:54.816Z,18.23
2017-10-25T09:47:30.132Z,18.17
2017-10-25T09:50:04.252Z,18.05
2017-10-25T09:52:38.925Z,17.97
2017-10-25T09:55:14.224Z,17.90
2017-10-25T09:57:48.883Z,17.84
2017-10-25T10:00:23.344Z,17.80
2017-10-25T10:02:58.065Z,17.82
2017-10-25T10:05:32.956Z,17.78
2017-10-25T10:08:08.044Z,17.76
2017-10-25T10:10:43.239Z,17.75
2017-10-25T10:13:18.255Z,17.74
2017-10-25T10:15:52.924Z,17.74
2017-10-25T10:18:27.660Z,17.79
2017-10-25T10:21:01.980Z,17.91
2017-10-25T10:23:36.772Z,17.90
2017-10-25T10:26:11.821Z,17.87
2017-10-25T10:28:47.235Z,17.83
2017-10-25T10:31:22.225Z,17.83
2017-10-25T10:33:56.723Z,17.82
2017-10-25T10:36:31.712Z,17.86
2017-10-25T10:39:06.178Z,17.86
2017-10-25T10:41:41.228Z,17.79
2017-10-25T10:44:16.261Z,17.75
2017-10-25T10:46:51.381Z,17.72
2017-10-25T10:49:26.276Z,17.75
2017-10-25T10:52:01.457Z,17.75
2017-10-25T10:54:36.040Z,17.77
2017-10-25T10:57:11.253Z,17.80
2017-10-25T10:59:46.184Z,17.88
2017-10-25T11:02:21.261Z,18.01
2017-10-25T11:04:55.724Z,18.09
2017-10-25T11:07:30.133Z,18.14
2017-10-25T11:10:04.983Z,18.18
2017-10-25T11:12:40.204Z,18.25
2017-10-25T11:15:15.197Z,18.21
2017-10-25T11:17:50.404Z,18.14
2017-10-25T11:20:25.248Z,18.07
2017-10-25T11:22:59.956Z,18.02
2017-10-25T11:25:34.699Z,18.01
2017-10-25T11:28:09.373Z,17.89
2017-10-25T11:30:44.687Z,17.84
2017-10-25T11:33:19.360Z,17.76
2017-10-25T11:35:54.829Z,17.69
2017-10-25T11:38:29.296Z,17.50
2017-10-25T11:41:04.222Z,17.33
2017-10-25T11:43:39.731Z,17.17
2017-10-25T11:46:14.186Z,17.03
2017-10-25T11:48:49.788Z,16.90
2017-10-25T11:51:25.044Z,16.72
2017-10-25T11:54:00.392Z,16.66
2017-10-25T11:56:35.319Z,16.58
2017-10-25T11:59:10.353Z,16.56
2017-10-25T12:01:45.077Z,16.61
2017-10-25T12:04:19.727Z,16.69
2017-10-25T12:06:54.957Z,16.68
2017-10-25T12:09:30.188Z,16.75
2017-10-25T12:12:04.898Z,16.78
2017-10-25T12:14:39.585Z,16.77
2017-10-25T12:17:13.995Z,16.78
2017-10-25T12:19:49.081Z,16.76
2017-10-25T12:22:24.108Z,16.85
2017-10-25T12:24:58.993Z,16.84
2017-10-25T12:27:33.615Z,16.86
2017-10-25T12:30:08.840Z,16.83
2017-10-25T12:32:44.127Z,16.78
2017-10-25T12:35:19.052Z,16.79
2017-10-25T12:37:54.324Z,16.81
2017-10-25T12:40:36.846Z,16.80
2017-10-25T12:43:12.380Z,16.80
2017-10-25T12:45:47.339Z,16.81
2017-10-25T12:48:22.488Z,16.81
2017-10-25T12:50:57.476Z,16.82
2017-10-25T12:53:32.354Z,16.76
2017-10-25T12:56:07.128Z,16.71
2017-10-25T12:58:41.868Z,16.71
2017-10-25T13:01:16.727Z,16.74
2017-10-25T13:03:51.993Z,16.72
2017-10-25T13:06:26.797Z,16.63
2017-10-25T13:09:01.948Z,16.54
2017-10-25T13:11:37.094Z,16.56
2017-10-25T13:14:14.529Z,16.56
2017-10-25T13:16:51.422Z,16.53
2017-10-25T13:19:27.005Z,16.51
2017-10-25T13:22:01.645Z,16.52
2017-10-25T13:24:36.708Z,16.48
2017-10-25T13:27:11.924Z,16.39
2017-10-25T13:29:47.228Z,16.42
2017-10-25T13:32:22.041Z,16.41
2017-10-25T13:34:57.098Z,16.35
2017-10-25T13:37:32.364Z,16.20
2017-10-25T13:40:07.495Z,16.11
2017-10-25T13:42:42.228Z,16.05
2017-10-25T13:45:17.157Z,16.00
2017-10-25T13:47:52.565Z,15.97
2017-10-25T13:50:27.269Z,15.99
2017-10-25T13:53:02.192Z,15.98
2017-10-25T13:55:37.120Z,15.97
2017-10-25T13:58:12.045Z,15.94
2017-10-25T14:00:46.951Z,15.95
2017-10-25T14:03:21.819Z,15.96
2017-10-25T14:05:56.419Z,16.01
2017-10-25T14:08:31.404Z,15.95
2017-10-25T14:11:06.389Z,15.88
2017-10-25T14:13:41.708Z,15.88
2017-10-25T14:16:16.654Z,15.86
2017-10-25T14:18:52.288Z,15.87
2017-10-25T14:21:27.115Z,15.90
2017-10-25T14:24:02.143Z,15.94
2017-10-25T14:40:08.471Z,16.07
2017-10-25T14:42:43.440Z,16.12
2017-10-25T14:45:18.332Z,16.14
2017-10-25T14:47:53.068Z,16.18
2017-10-25T14:50:27.955Z,16.18
2017-10-25T14:53:03.553Z,16.19
2017-10-25T14:55:38.293Z,16.19
2017-10-25T14:58:13.056Z,16.22
2017-10-25T15:00:47.884Z,16.20
2017-10-25T15:03:22.700Z,16.17
2017-10-25T15:05:57.353Z,16.17
2017-10-25T15:08:32.185Z,16.17
2017-10-25T15:11:07.018Z,16.20
2017-10-25T15:13:41.773Z,16.25
2017-10-25T15:16:16.623Z,16.28
2017-10-25T15:18:51.332Z,16.27
2017-10-25T15:21:26.080Z,16.30
2017-10-25T15:24:00.884Z,16.36
2017-10-25T15:26:35.617Z,16.34
2017-10-25T15:29:10.368Z,16.37
2017-10-25T15:31:45.268Z,16.38
2017-10-25T15:34:20.004Z,16.45
2017-10-25T15:36:54.952Z,16.51
2017-10-25T15:39:29.813Z,16.48
2017-10-25T15:42:04.863Z,16.39
2017-10-25T15:44:39.126Z,16.33
2017-10-25T15:47:14.172Z,16.27
2017-10-25T15:49:48.896Z,16.25
2017-10-25T15:52:24.515Z,16.23
2017-10-25T15:54:59.328Z,16.18
2017-10-25T15:57:33.972Z,16.18
2017-10-25T16:00:08.147Z,16.15
2017-10-25T16:02:43.260Z,16.14
2017-10-25T16:05:18.102Z,16.10
2017-10-25T16:07:53.008Z,16.10
2017-10-25T16:10:27.803Z,16.12
2017-10-25T16:13:02.305Z,16.10
2017-10-25T16:15:36.844Z,16.09
2017-10-25T16:18:11.966Z,16.09
2017-10-25T16:20:46.788Z,16.04
2017-10-25T16:23:21.555Z,16.05
2017-10-25T16:25:56.235Z,16.06
2017-10-25T16:28:31.000Z,16.09
2017-10-25T16:31:05.401Z,16.10
2017-10-25T16:33:40.660Z,16.08
2017-10-25T16:36:15.539Z,16.15
2017-10-25T16:38:50.630Z,16.18
2017-10-25T16:41:25.152Z,16.19
2017-10-25T16:44:00.764Z,16.17
2017-10-25T16:46:35.716Z,16.16
2017-10-25T16:49:10.456Z,16.21
2017-10-25T16:51:45.292Z,16.22
2017-10-25T16:54:19.889Z,16.18
2017-10-25T16:56:54.718Z,16.11
2017-10-25T16:59:29.432Z,16.04
2017-10-25T17:02:04.368Z,16.03
2017-10-25T17:04:38.956Z,15.99
2017-10-25T17:07:13.756Z,15.97
2017-10-25T17:09:48.810Z,15.95
2017-10-25T17:12:23.392Z,15.90
2017-10-25T17:14:59.045Z,15.88
2017-10-25T17:17:33.667Z,15.84
2017-10-25T17:20:08.161Z,15.85
2017-10-25T17:22:43.025Z,15.86
2017-10-25T17:25:17.427Z,15.87
2017-10-25T17:27:52.456Z,15.85
2017-10-25T17:30:27.376Z,15.89
2017-10-25T17:33:01.989Z,15.94
2017-10-25T17:35:36.695Z,15.94
2017-10-25T17:38:12.400Z,15.88
2017-10-25T17:40:47.219Z,15.85
2017-10-25T17:43:23.829Z,15.82
2017-10-25T17:45:59.092Z,15.79
2017-10-25T17:48:33.937Z,15.77
2017-10-25T17:51:08.848Z,15.73
2017-10-25T17:53:44.788Z,15.72
2017-10-25T17:56:19.508Z,15.70
2017-10-25T17:58:54.049Z,15.68
2017-10-25T18:01:28.700Z,15.65
2017-10-25T18:04:03.452Z,15.63
2017-10-25T18:06:39.069Z,15.61
2017-10-25T18:09:13.904Z,15.55
2017-10-25T18:11:48.632Z,15.54
2017-10-25T18:14:23.481Z,15.53
2017-10-25T18:16:58.117Z,15.56
2017-10-25T18:19:33.064Z,15.58
2017-10-25T18:22:07.815Z,15.60
2017-10-25T18:24:42.592Z,15.56
2017-10-25T18:27:17.464Z,15.57
2017-10-25T18:29:52.228Z,15.52
2017-10-25T18:32:27.005Z,15.49
2017-10-25T18:35:01.964Z,15.39
2017-10-25T18:37:36.780Z,15.39
2017-10-25T18:40:11.607Z,15.35
2017-10-25T18:42:46.280Z,15.33
2017-10-25T18:45:21.223Z,15.28
2017-10-25T18:47:56.032Z,15.22
2017-10-25T18:50:31.817Z,15.20
2017-10-25T18:53:06.425Z,15.22
2017-10-25T18:55:41.143Z,15.22
2017-10-25T18:58:16.113Z,15.19
2017-10-25T19:00:51.156Z,15.13
2017-10-25T19:03:25.697Z,15.06
2017-10-25T19:06:00.392Z,15.00
2017-10-25T19:08:35.189Z,15.01
2017-10-25T19:11:09.968Z,15.00
2017-10-25T19:13:44.628Z,14.98
2017-10-25T19:16:20.420Z,14.96
2017-10-25T19:18:55.193Z,14.93
2017-10-25T19:21:29.819Z,14.93
2017-10-25T19:24:04.460Z,14.87
2017-10-25T19:26:39.308Z,14.82
2017-10-25T19:29:13.832Z,14.81
2017-10-25T19:31:48.360Z,14.79
2017-10-25T19:34:22.760Z,14.80
2017-10-25T19:36:57.787Z,14.78
2017-10-25T19:39:32.198Z,14.79
2017-10-25T19:42:07.236Z,14.77
2017-10-25T19:44:42.581Z,14.71
2017-10-25T19:47:17.540Z,14.72
2017-10-25T19:49:52.252Z,14.68
2017-10-25T19:52:26.878Z,14.62
2017-10-25T19:55:01.241Z,14.59
2017-10-25T19:57:36.681Z,14.61
2017-10-25T20:00:11.861Z,14.56
2017-10-25T20:02:46.492Z,14.53
2017-10-25T20:05:21.221Z,14.50
2017-10-25T20:07:55.948Z,14.45
2017-10-25T20:10:30.553Z,14.41
2017-10-25T20:13:05.453Z,14.38
2017-10-25T20:15:40.104Z,14.36
2017-10-25T20:18:14.850Z,14.35
2017-10-25T20:20:49.359Z,14.32
2017-10-25T20:23:24.116Z,14.29
2017-10-25T20:25:58.780Z,14.26
2017-10-25T20:28:33.331Z,14.19
2017-10-25T20:31:08.024Z,14.15
2017-10-25T20:33:42.849Z,14.09
2017-10-25T20:36:17.496Z,14.07
2017-10-25T20:38:52.164Z,14.05
2017-10-25T20:41:26.977Z,14.03
2017-10-25T20:44:01.824Z,14.04
2017-10-25T20:46:36.639Z,14.05
2017-10-25T20:49:11.477Z,14.03
2017-10-25T20:51:46.264Z,14.00
2017-10-25T20:54:21.044Z,13.98
2017-10-25T20:56:55.906Z,13.96
2017-10-25T20:59:30.980Z,13.94
2017-10-25T21:02:06.011Z,13.90
2017-10-25T21:04:40.784Z,13.90
2017-10-25T21:07:15.547Z,13.89
2017-10-25T21:09:50.293Z,13.90
2017-10-25T21:12:25.340Z,13.85
2017-10-25T21:15:00.316Z,13.82
2017-10-25T21:17:35.102Z,13.83
2017-10-25T21:20:09.824Z,13.84
2017-10-25T21:22:44.540Z,13.84
2017-10-25T21:25:19.280Z,13.84
2017-10-25T21:27:53.919Z,13.84
2017-10-25T21:30:29.563Z,13.83
2017-10-25T21:33:04.148Z,13.80
2017-10-25T21:35:39.248Z,13.79
2017-10-25T21:38:14.009Z,13.78
2017-10-25T21:40:49.025Z,13.77
2017-10-25T21:43:23.365Z,13.76
2017-10-25T21:45:58.561Z,13.82
2017-10-25T21:48:33.592Z,13.80
2017-10-25T21:51:08.349Z,13.74
2017-10-25T21:53:44.032Z,13.70
2017-10-25T21:56:18.826Z,13.69
2017-10-25T21:58:53.428Z,13.67
2017-10-25T22:01:28.284Z,13.66
2017-10-25T22:04:03.160Z,13.67
2017-10-25T22:06:37.820Z,13.69
2017-10-25T22:09:12.660Z,13.66
2017-10-25T22:11:47.396Z,13.63
2017-10-25T22:14:22.129Z,13.60
2017-10-25T22:16:56.849Z,13.49
2017-10-25T22:19:31.461Z,13.48
2017-10-25T22:22:06.399Z,13.45
2017-10-25T22:24:41.325Z,13.45
2017-10-25T22:27:16.034Z,13.45
2017-10-25T22:29:51.616Z,13.46
2017-10-25T22:32:26.240Z,13.46
2017-10-25T22:35:00.968Z,13.44
2017-10-25T22:37:35.728Z,13.42
2017-10-25T22:40:10.064Z,13.40
2017-10-25T22:42:45.084Z,13.39
2017-10-25T22:48:20.198Z,13.42
2017-10-25T22:50:54.819Z,13.37
2017-10-25T22:53:29.535Z,13.33
2017-10-25T22:56:04.248Z,13.30
2017-10-25T22:58:38.965Z,13.28
2017-10-25T23:01:13.755Z,13.27
2017-10-25T23:03:48.482Z,13.27
2017-10-25T23:06:23.411Z,13.26
2017-10-25T23:08:58.132Z,13.22
2017-10-25T23:11:32.938Z,13.21
2017-10-25T23:14:07.737Z,13.17
2017-10-25T23:16:42.475Z,13.15
2017-10-25T23:19:17.244Z,13.19
2017-10-25T23:21:51.983Z,13.18
2017-10-25T23:24:26.951Z,13.18
2017-10-25T23:27:02.287Z,13.16
2017-10-25T23:29:38.003Z,13.16
2017-10-25T23:32:12.875Z,13.13
2017-10-25T23:34:47.590Z,13.13
2017-10-25T23:37:22.202Z,13.13
2017-10-25T23:39:56.849Z,13.14
2017-10-25T23:42:31.431Z,13.15
2017-10-25T23:45:06.175Z,13.15
2017-10-25T23:47:41.711Z,13.14
2017-10-25T23:50:17.451Z,13.15
2017-10-25T23:52:52.158Z,13.17
2017-10-25T23:55:27.843Z,13.11
2017-10-25T23:58:02.480Z,13.07
